sensor_id;sensor_type;location;lat;lon;timestamp;P1;durP1;ratioP1;P2;durP2;ratioP2
2912;SDS011;1466;48.778;9.166;2024-03-23T00:51:52;15.63;;;7.53;;
2912;SDS011;1466;48.778;9.166;2024-03-23T00:54:18;17.00;;;8.70;;
2912;SDS011;1466;48.778;9.166;2024-03-23T00:56:44;31.07;;;13.00;;
2912;SDS011;1466;48.778;9.166;2024-03-23T00:59:09;19.13;;;9.23;;
2912;SDS011;1466;48.778;9.166;2024-03-23T01:01:35;18.13;;;8.43;;
2912;SDS011;1466;48.778;9.166;2024-03-23T01:04:00;22.37;;;8.77;;
2912;SDS011;1466;48.778;9.166;2024-03-23T01:06:27;20.98;;;9.25;;
2912;SDS011;1466;48.778;9.166;2024-03-23T01:08:53;18.57;;;7.60;;
2912;SDS011;1466;48.778;9.166;2024-03-23T01:11:18;9.63;;;7.00;;
2912;SDS011;1466;48.778;9.166;2024-03-23T01:13:44;10.83;;;6.57;;
2912;SDS011;1466;48.778;9.166;2024-03-23T01:16:09;13.03;;;6.67;;
2912;SDS011;1466;48.778;9.166;2024-03-23T01:18:35;14.00;;;6.93;;
2912;SDS011;1466;48.778;9.166;2024-03-23T01:21:00;11.67;;;6.60;;
2912;SDS011;1466;48.778;9.166;2024-03-23T01:23:26;13.93;;;6.47;;
2912;SDS011;1466;48.778;9.166;2024-03-23T01:25:55;12.63;;;6.60;;
2912;SDS011;1466;48.778;9.166;2024-03-23T01:28:21;13.75;;;7.10;;
2912;SDS011;1466;48.778;9.166;2024-03-23T01:30:47;15.27;;;7.13;;
2912;SDS011;1466;48.778;9.166;2024-03-23T01:33:12;12.87;;;6.57;;
2912;SDS011;1466;48.778;9.166;2024-03-23T01:35:38;12.80;;;7.03;;
2912;SDS011;1466;48.778;9.166;2024-03-23T01:38:04;16.37;;;7.47;;
2912;SDS011;1466;48.778;9.166;2024-03-23T01:40:29;14.57;;;7.13;;
2912;SDS011;1466;48.778;9.166;2024-03-23T01:43:04;13.32;;;7.00;;
2912;SDS011;1466;48.778;9.166;2024-03-23T01:45:32;16.25;;;6.95;;
2912;SDS011;1466;48.778;9.166;2024-03-23T01:47:58;13.03;;;6.70;;
2912;SDS011;1466;48.778;9.166;2024-03-23T01:50:25;11.38;;;6.38;;
2912;SDS011;1466;48.778;9.166;2024-03-23T01:52:52;13.63;;;6.85;;
2912;SDS011;1466;48.778;9.166;2024-03-23T01:55:18;14.82;;;6.63;;
2912;SDS011;1466;48.778;9.166;2024-03-23T01:57:44;12.20;;;7.00;;
2912;SDS011;1466;48.778;9.166;2024-03-23T02:00:10;12.13;;;6.60;;
2912;SDS011;1466;48.778;9.166;2024-03-23T02:02:40;13.05;;;6.30;;
2912;SDS011;1466;48.778;9.166;2024-03-23T02:05:07;9.07;;;6.20;;
2912;SDS011;1466;48.778;9.166;2024-03-23T02:07:33;15.13;;;6.27;;
2912;SDS011;1466;48.778;9.166;2024-03-23T02:09:59;20.77;;;8.13;;
2912;SDS011;1466;48.778;9.166;2024-03-23T02:12:26;15.07;;;6.88;;
2912;SDS011;1466;48.778;9.166;2024-03-23T02:14:51;13.53;;;7.00;;
2912;SDS011;1466;48.778;9.166;2024-03-23T02:17:17;14.73;;;6.63;;
2912;SDS011;1466;48.778;9.166;2024-03-23T02:19:42;13.73;;;6.83;;
2912;SDS011;1466;48.778;9.166;2024-03-23T02:22:08;13.13;;;6.70;;
2912;SDS011;1466;48.778;9.166;2024-03-23T02:24:35;16.15;;;7.07;;
2912;SDS011;1466;48.778;9.166;2024-03-23T02:27:02;16.80;;;6.78;;
2912;SDS011;1466;48.778;9.166;2024-03-23T02:29:28;12.27;;;7.15;;
2912;SDS011;1466;48.778;9.166;2024-03-23T02:31:53;19.17;;;7.17;;
2912;SDS011;1466;48.778;9.166;2024-03-23T02:34:19;15.30;;;7.10;;
2912;SDS011;1466;48.778;9.166;2024-03-23T02:36:44;13.50;;;7.07;;
2912;SDS011;1466;48.778;9.166;2024-03-23T02:39:10;16.93;;;6.63;;
2912;SDS011;1466;48.778;9.166;2024-03-23T02:41:36;13.43;;;6.93;;
2912;SDS011;1466;48.778;9.166;2024-03-23T02:44:02;8.68;;;5.88;;
2912;SDS011;1466;48.778;9.166;2024-03-23T02:46:27;12.83;;;6.67;;
2912;SDS011;1466;48.778;9.166;2024-03-23T02:48:53;8.30;;;5.97;;
2912;SDS011;1466;48.778;9.166;2024-03-23T02:51:19;18.33;;;6.90;;
2912;SDS011;1466;48.778;9.166;2024-03-23T02:53:44;11.83;;;6.87;;
2912;SDS011;1466;48.778;9.166;2024-03-23T02:56:10;13.63;;;6.73;;
2912;SDS011;1466;48.778;9.166;2024-03-23T02:58:40;13.52;;;6.40;;
2912;SDS011;1466;48.778;9.166;2024-03-23T03:01:06;14.00;;;6.60;;
2912;SDS011;1466;48.778;9.166;2024-03-23T03:03:32;12.10;;;6.53;;
2912;SDS011;1466;48.778;9.166;2024-03-23T03:05:57;15.33;;;7.10;;
2912;SDS011;1466;48.778;9.166;2024-03-23T03:08:23;12.97;;;6.43;;
2912;SDS011;1466;48.778;9.166;2024-03-23T03:10:48;14.03;;;7.00;;
2912;SDS011;1466;48.778;9.166;2024-03-23T03:13:14;10.10;;;6.03;;
2912;SDS011;1466;48.778;9.166;2024-03-23T03:15:40;9.03;;;5.87;;
2912;SDS011;1466;48.778;9.166;2024-03-23T03:18:08;16.33;;;6.85;;
2912;SDS011;1466;48.778;9.166;2024-03-23T03:20:33;11.20;;;6.50;;
2912;SDS011;1466;48.778;9.166;2024-03-23T03:22:59;11.85;;;6.18;;
2912;SDS011;1466;48.778;9.166;2024-03-23T03:25:25;11.00;;;6.47;;
2912;SDS011;1466;48.778;9.166;2024-03-23T03:27:50;11.73;;;7.00;;
2912;SDS011;1466;48.778;9.166;2024-03-23T03:30:16;17.20;;;6.77;;
2912;SDS011;1466;48.778;9.166;2024-03-23T03:32:42;13.00;;;6.67;;
2912;SDS011;1466;48.778;9.166;2024-03-23T03:35:08;11.82;;;6.78;;
2912;SDS011;1466;48.778;9.166;2024-03-23T03:37:33;13.57;;;6.93;;
2912;SDS011;1466;48.778;9.166;2024-03-23T03:39:59;21.43;;;7.00;;
2912;SDS011;1466;48.778;9.166;2024-03-23T03:42:25;16.40;;;6.93;;
2912;SDS011;1466;48.778;9.166;2024-03-23T03:44:50;18.27;;;7.13;;
2912;SDS011;1466;48.778;9.166;2024-03-23T03:47:17;11.55;;;6.25;;
2912;SDS011;1466;48.778;9.166;2024-03-23T03:49:43;13.33;;;6.97;;
2912;SDS011;1466;48.778;9.166;2024-03-23T03:52:08;22.23;;;7.80;;
2912;SDS011;1466;48.778;9.166;2024-03-23T03:54:34;12.20;;;6.50;;
2912;SDS011;1466;48.778;9.166;2024-03-23T03:56:59;13.53;;;6.80;;
2912;SDS011;1466;48.778;9.166;2024-03-23T03:59:25;16.00;;;7.07;;
2912;SDS011;1466;48.778;9.166;2024-03-23T04:01:51;13.18;;;6.32;;
2912;SDS011;1466;48.778;9.166;2024-03-23T04:04:17;12.67;;;6.57;;
2912;SDS011;1466;48.778;9.166;2024-03-23T04:06:43;13.17;;;6.67;;
2912;SDS011;1466;48.778;9.166;2024-03-23T04:09:09;14.43;;;6.97;;
2912;SDS011;1466;48.778;9.166;2024-03-23T04:11:35;12.45;;;6.63;;
2912;SDS011;1466;48.778;9.166;2024-03-23T04:14:00;15.57;;;6.80;;
2912;SDS011;1466;48.778;9.166;2024-03-23T04:16:34;13.37;;;6.87;;
2912;SDS011;1466;48.778;9.166;2024-03-23T04:19:00;16.83;;;7.35;;
2912;SDS011;1466;48.778;9.166;2024-03-23T04:21:26;10.93;;;6.17;;
2912;SDS011;1466;48.778;9.166;2024-03-23T04:23:51;13.87;;;6.60;;
2912;SDS011;1466;48.778;9.166;2024-03-23T04:26:17;24.50;;;7.50;;
2912;SDS011;1466;48.778;9.166;2024-03-23T04:28:42;11.60;;;6.47;;
2912;SDS011;1466;48.778;9.166;2024-03-23T04:31:08;25.63;;;8.43;;
2912;SDS011;1466;48.778;9.166;2024-03-23T04:33:34;10.73;;;6.03;;
2912;SDS011;1466;48.778;9.166;2024-03-23T04:36:00;14.53;;;6.80;;
2912;SDS011;1466;48.778;9.166;2024-03-23T04:38:26;14.52;;;6.97;;
2912;SDS011;1466;48.778;9.166;2024-03-23T04:40:55;15.30;;;7.67;;
2912;SDS011;1466;48.778;9.166;2024-03-23T04:43:21;15.82;;;7.68;;
2912;SDS011;1466;48.778;9.166;2024-03-23T04:45:47;15.37;;;7.63;;
2912;SDS011;1466;48.778;9.166;2024-03-23T04:48:12;17.57;;;8.10;;
2912;SDS011;1466;48.778;9.166;2024-03-23T04:50:38;14.67;;;8.27;;
2912;SDS011;1466;48.778;9.166;2024-03-23T04:53:04;15.00;;;8.43;;
2912;SDS011;1466;48.778;9.166;2024-03-23T04:55:29;16.27;;;8.20;;
2912;SDS011;1466;48.778;9.166;2024-03-23T04:57:56;15.52;;;8.55;;
2912;SDS011;1466;48.778;9.166;2024-03-23T05:00:21;15.83;;;8.83;;
2912;SDS011;1466;48.778;9.166;2024-03-23T05:02:48;18.92;;;9.50;;
2912;SDS011;1466;48.778;9.166;2024-03-23T05:05:14;18.23;;;9.80;;
2912;SDS011;1466;48.778;9.166;2024-03-23T05:07:39;31.60;;;13.10;;
2912;SDS011;1466;48.778;9.166;2024-03-23T05:10:06;28.75;;;13.05;;
2912;SDS011;1466;48.778;9.166;2024-03-23T05:12:35;22.75;;;11.95;;
2912;SDS011;1466;48.778;9.166;2024-03-23T05:15:05;27.58;;;14.10;;
2912;SDS011;1466;48.778;9.166;2024-03-23T05:17:31;23.50;;;13.85;;
2912;SDS011;1466;48.778;9.166;2024-03-23T05:19:57;26.52;;;13.25;;
2912;SDS011;1466;48.778;9.166;2024-03-23T05:22:23;24.13;;;14.03;;
2912;SDS011;1466;48.778;9.166;2024-03-23T05:24:49;24.97;;;13.90;;
2912;SDS011;1466;48.778;9.166;2024-03-23T05:27:14;28.90;;;16.73;;
2912;SDS011;1466;48.778;9.166;2024-03-23T05:29:40;28.33;;;16.40;;
2912;SDS011;1466;48.778;9.166;2024-03-23T05:32:05;29.50;;;14.47;;
2912;SDS011;1466;48.778;9.166;2024-03-23T05:34:31;29.60;;;15.70;;
2912;SDS011;1466;48.778;9.166;2024-03-23T05:36:57;32.40;;;15.37;;
2912;SDS011;1466;48.778;9.166;2024-03-23T05:39:23;29.30;;;14.50;;
2912;SDS011;1466;48.778;9.166;2024-03-23T05:41:49;34.17;;;17.02;;
2912;SDS011;1466;48.778;9.166;2024-03-23T05:44:14;29.67;;;15.70;;
2912;SDS011;1466;48.778;9.166;2024-03-23T05:46:40;33.17;;;16.40;;
2912;SDS011;1466;48.778;9.166;2024-03-23T05:49:06;35.83;;;17.17;;
2912;SDS011;1466;48.778;9.166;2024-03-23T05:51:32;30.93;;;16.67;;
2912;SDS011;1466;48.778;9.166;2024-03-23T05:53:58;34.30;;;17.00;;
2912;SDS011;1466;48.778;9.166;2024-03-23T05:56:24;37.87;;;16.70;;
2912;SDS011;1466;48.778;9.166;2024-03-23T05:58:51;24.35;;;13.00;;
2912;SDS011;1466;48.778;9.166;2024-03-23T06:01:16;23.03;;;11.47;;
2912;SDS011;1466;48.778;9.166;2024-03-23T06:03:42;36.17;;;13.87;;
2912;SDS011;1466;48.778;9.166;2024-03-23T06:06:09;19.52;;;9.65;;
2912;SDS011;1466;48.778;9.166;2024-03-23T06:08:37;22.60;;;9.85;;
2912;SDS011;1466;48.778;9.166;2024-03-23T06:11:03;15.60;;;9.60;;
2912;SDS011;1466;48.778;9.166;2024-03-23T06:13:31;19.58;;;10.68;;
2912;SDS011;1466;48.778;9.166;2024-03-23T06:16:00;19.67;;;10.32;;
2912;SDS011;1466;48.778;9.166;2024-03-23T06:18:29;14.07;;;8.43;;
2912;SDS011;1466;48.778;9.166;2024-03-23T06:20:54;18.17;;;8.33;;
2912;SDS011;1466;48.778;9.166;2024-03-23T06:23:20;24.93;;;9.70;;
2912;SDS011;1466;48.778;9.166;2024-03-23T06:25:46;20.07;;;8.10;;
2912;SDS011;1466;48.778;9.166;2024-03-23T06:28:11;19.10;;;7.63;;
2912;SDS011;1466;48.778;9.166;2024-03-23T06:30:37;15.43;;;7.33;;
2912;SDS011;1466;48.778;9.166;2024-03-23T06:33:03;14.33;;;7.17;;
2912;SDS011;1466;48.778;9.166;2024-03-23T06:35:28;16.70;;;7.20;;
2912;SDS011;1466;48.778;9.166;2024-03-23T06:37:54;10.83;;;5.60;;
2912;SDS011;1466;48.778;9.166;2024-03-23T06:40:19;13.10;;;6.50;;
2912;SDS011;1466;48.778;9.166;2024-03-23T06:42:45;8.10;;;5.60;;
2912;SDS011;1466;48.778;9.166;2024-03-23T06:45:11;13.53;;;6.20;;
2912;SDS011;1466;48.778;9.166;2024-03-23T06:47:36;8.67;;;5.23;;
2912;SDS011;1466;48.778;9.166;2024-03-23T06:50:02;16.30;;;6.40;;
2912;SDS011;1466;48.778;9.166;2024-03-23T06:52:29;12.40;;;5.72;;
2912;SDS011;1466;48.778;9.166;2024-03-23T06:54:55;13.35;;;5.63;;
2912;SDS011;1466;48.778;9.166;2024-03-23T06:57:21;14.77;;;6.00;;
2912;SDS011;1466;48.778;9.166;2024-03-23T06:59:47;10.70;;;5.53;;
2912;SDS011;1466;48.778;9.166;2024-03-23T07:02:12;13.87;;;5.77;;
2912;SDS011;1466;48.778;9.166;2024-03-23T07:04:38;14.07;;;5.93;;
2912;SDS011;1466;48.778;9.166;2024-03-23T07:07:06;10.13;;;5.07;;
2912;SDS011;1466;48.778;9.166;2024-03-23T07:09:32;29.73;;;8.00;;
2912;SDS011;1466;48.778;9.166;2024-03-23T07:11:58;16.93;;;6.10;;
2912;SDS011;1466;48.778;9.166;2024-03-23T07:14:24;12.30;;;5.27;;
2912;SDS011;1466;48.778;9.166;2024-03-23T07:16:49;13.97;;;5.40;;
2912;SDS011;1466;48.778;9.166;2024-03-23T07:19:16;16.50;;;6.18;;
2912;SDS011;1466;48.778;9.166;2024-03-23T07:21:45;11.75;;;5.40;;
2912;SDS011;1466;48.778;9.166;2024-03-23T07:24:11;13.32;;;5.45;;
2912;SDS011;1466;48.778;9.166;2024-03-23T07:26:37;10.43;;;5.45;;
2912;SDS011;1466;48.778;9.166;2024-03-23T07:29:06;10.05;;;5.60;;
2912;SDS011;1466;48.778;9.166;2024-03-23T07:31:32;9.50;;;5.57;;
2912;SDS011;1466;48.778;9.166;2024-03-23T07:33:58;8.30;;;5.20;;
2912;SDS011;1466;48.778;9.166;2024-03-23T07:36:23;21.63;;;7.17;;
2912;SDS011;1466;48.778;9.166;2024-03-23T07:38:49;17.20;;;6.50;;
2912;SDS011;1466;48.778;9.166;2024-03-23T07:41:16;12.23;;;5.77;;
2912;SDS011;1466;48.778;9.166;2024-03-23T07:43:45;18.92;;;6.35;;
2912;SDS011;1466;48.778;9.166;2024-03-23T07:46:12;22.95;;;6.97;;
2912;SDS011;1466;48.778;9.166;2024-03-23T07:48:39;20.60;;;6.47;;
2912;SDS011;1466;48.778;9.166;2024-03-23T07:51:08;40.17;;;9.13;;
2912;SDS011;1466;48.778;9.166;2024-03-23T07:53:35;20.55;;;6.40;;
2912;SDS011;1466;48.778;9.166;2024-03-23T07:58:31;9.75;;;5.55;;
2912;SDS011;1466;48.778;9.166;2024-03-23T08:01:01;17.33;;;6.57;;
2912;SDS011;1466;48.778;9.166;2024-03-23T08:03:29;14.32;;;6.07;;
2912;SDS011;1466;48.778;9.166;2024-03-23T08:05:55;14.03;;;6.03;;
2912;SDS011;1466;48.778;9.166;2024-03-23T08:08:20;9.30;;;5.20;;
2912;SDS011;1466;48.778;9.166;2024-03-23T08:10:50;15.90;;;6.20;;
2912;SDS011;1466;48.778;9.166;2024-03-23T08:13:16;15.05;;;5.68;;
2912;SDS011;1466;48.778;9.166;2024-03-23T08:15:42;21.10;;;6.93;;
2912;SDS011;1466;48.778;9.166;2024-03-23T08:18:08;21.93;;;7.33;;
2912;SDS011;1466;48.778;9.166;2024-03-23T08:20:33;13.43;;;5.83;;
2912;SDS011;1466;48.778;9.166;2024-03-23T08:22:59;18.80;;;6.60;;
2912;SDS011;1466;48.778;9.166;2024-03-23T08:25:25;11.03;;;5.20;;
2912;SDS011;1466;48.778;9.166;2024-03-23T08:27:50;14.00;;;6.00;;
2912;SDS011;1466;48.778;9.166;2024-03-23T08:30:16;20.60;;;7.10;;
2912;SDS011;1466;48.778;9.166;2024-03-23T08:32:42;17.60;;;6.47;;
2912;SDS011;1466;48.778;9.166;2024-03-23T08:35:07;14.07;;;6.37;;
2912;SDS011;1466;48.778;9.166;2024-03-23T08:37:33;23.92;;;6.93;;
2912;SDS011;1466;48.778;9.166;2024-03-23T08:39:59;36.20;;;8.50;;
2912;SDS011;1466;48.778;9.166;2024-03-23T08:42:25;21.10;;;6.90;;
2912;SDS011;1466;48.778;9.166;2024-03-23T08:44:51;45.72;;;10.38;;
2912;SDS011;1466;48.778;9.166;2024-03-23T08:47:16;20.33;;;6.97;;
2912;SDS011;1466;48.778;9.166;2024-03-23T08:49:42;30.33;;;8.50;;
2912;SDS011;1466;48.778;9.166;2024-03-23T08:52:09;23.27;;;7.25;;
2912;SDS011;1466;48.778;9.166;2024-03-23T08:54:34;21.47;;;6.70;;
2912;SDS011;1466;48.778;9.166;2024-03-23T08:57:00;17.73;;;6.40;;
2912;SDS011;1466;48.778;9.166;2024-03-23T08:59:25;16.53;;;6.17;;
2912;SDS011;1466;48.778;9.166;2024-03-23T09:01:52;16.20;;;6.47;;
2912;SDS011;1466;48.778;9.166;2024-03-23T09:04:18;21.05;;;6.78;;
2912;SDS011;1466;48.778;9.166;2024-03-23T09:06:43;19.20;;;6.37;;
2912;SDS011;1466;48.778;9.166;2024-03-23T09:09:09;16.97;;;6.43;;
2912;SDS011;1466;48.778;9.166;2024-03-23T09:11:35;19.83;;;6.63;;
2912;SDS011;1466;48.778;9.166;2024-03-23T09:14:00;23.10;;;7.27;;
2912;SDS011;1466;48.778;9.166;2024-03-23T09:16:26;18.87;;;7.03;;
2912;SDS011;1466;48.778;9.166;2024-03-23T09:18:52;19.70;;;7.20;;
2912;SDS011;1466;48.778;9.166;2024-03-23T09:21:18;30.20;;;8.40;;
2912;SDS011;1466;48.778;9.166;2024-03-23T09:23:44;17.33;;;6.50;;
2912;SDS011;1466;48.778;9.166;2024-03-23T09:26:09;22.33;;;7.30;;
2912;SDS011;1466;48.778;9.166;2024-03-23T09:28:35;22.07;;;7.30;;
2912;SDS011;1466;48.778;9.166;2024-03-23T09:31:07;16.77;;;6.80;;
2912;SDS011;1466;48.778;9.166;2024-03-23T09:33:33;24.08;;;8.13;;
2912;SDS011;1466;48.778;9.166;2024-03-23T09:36:03;19.65;;;7.47;;
2912;SDS011;1466;48.778;9.166;2024-03-23T09:38:29;19.00;;;7.10;;
2912;SDS011;1466;48.778;9.166;2024-03-23T09:40:55;22.80;;;8.23;;
2912;SDS011;1466;48.778;9.166;2024-03-23T09:43:22;20.88;;;7.60;;
2912;SDS011;1466;48.778;9.166;2024-03-23T09:45:48;28.57;;;8.23;;
2912;SDS011;1466;48.778;9.166;2024-03-23T09:48:14;16.77;;;7.10;;
2912;SDS011;1466;48.778;9.166;2024-03-23T09:50:41;19.45;;;7.80;;
2912;SDS011;1466;48.778;9.166;2024-03-23T09:53:08;21.38;;;7.82;;
2912;SDS011;1466;48.778;9.166;2024-03-23T09:55:35;29.92;;;8.77;;
2912;SDS011;1466;48.778;9.166;2024-03-23T09:58:01;22.30;;;7.37;;
2912;SDS011;1466;48.778;9.166;2024-03-23T10:00:27;24.42;;;8.52;;
2912;SDS011;1466;48.778;9.166;2024-03-23T10:02:55;24.47;;;8.80;;
2912;SDS011;1466;48.778;9.166;2024-03-23T10:05:21;23.27;;;8.82;;
2912;SDS011;1466;48.778;9.166;2024-03-23T10:07:48;25.13;;;7.85;;
2912;SDS011;1466;48.778;9.166;2024-03-23T10:10:15;24.95;;;8.93;;
2912;SDS011;1466;48.778;9.166;2024-03-23T10:12:48;20.95;;;8.32;;
2912;SDS011;1466;48.778;9.166;2024-03-23T10:15:20;19.63;;;7.50;;
2912;SDS011;1466;48.778;9.166;2024-03-23T10:17:47;19.98;;;8.05;;
2912;SDS011;1466;48.778;9.166;2024-03-23T10:20:13;24.30;;;8.47;;
2912;SDS011;1466;48.778;9.166;2024-03-23T10:22:44;23.15;;;8.70;;
2912;SDS011;1466;48.778;9.166;2024-03-23T10:25:10;18.55;;;7.35;;
2912;SDS011;1466;48.778;9.166;2024-03-23T10:27:37;31.13;;;8.48;;
2912;SDS011;1466;48.778;9.166;2024-03-23T10:30:12;14.50;;;8.53;;
2912;SDS011;1466;48.778;9.166;2024-03-23T10:32:41;14.13;;;6.70;;
2912;SDS011;1466;48.778;9.166;2024-03-23T10:35:17;26.40;;;8.80;;
2912;SDS011;1466;48.778;9.166;2024-03-23T10:37:44;23.58;;;8.77;;
2912;SDS011;1466;48.778;9.166;2024-03-23T10:40:12;21.27;;;8.38;;
2912;SDS011;1466;48.778;9.166;2024-03-23T10:42:38;24.65;;;8.38;;
2912;SDS011;1466;48.778;9.166;2024-03-23T10:45:05;20.95;;;8.30;;
2912;SDS011;1466;48.778;9.166;2024-03-23T10:47:32;22.50;;;8.15;;
2912;SDS011;1466;48.778;9.166;2024-03-23T10:49:59;21.25;;;8.18;;
2912;SDS011;1466;48.778;9.166;2024-03-23T10:52:24;19.70;;;7.97;;
2912;SDS011;1466;48.778;9.166;2024-03-23T10:54:53;37.87;;;10.60;;
2912;SDS011;1466;48.778;9.166;2024-03-23T10:57:23;18.75;;;8.02;;
2912;SDS011;1466;48.778;9.166;2024-03-23T10:59:54;20.02;;;8.50;;
2912;SDS011;1466;48.778;9.166;2024-03-23T11:02:21;21.88;;;9.60;;
2912;SDS011;1466;48.778;9.166;2024-03-23T11:04:47;22.17;;;9.20;;
2912;SDS011;1466;48.778;9.166;2024-03-23T11:09:53;16.73;;;6.93;;
2912;SDS011;1466;48.778;9.166;2024-03-23T11:14:57;16.15;;;6.78;;
2912;SDS011;1466;48.778;9.166;2024-03-23T11:17:27;22.88;;;8.13;;
2912;SDS011;1466;48.778;9.166;2024-03-23T11:20:02;31.95;;;9.10;;
2912;SDS011;1466;48.778;9.166;2024-03-23T11:22:43;30.92;;;9.15;;
2912;SDS011;1466;48.778;9.166;2024-03-23T11:27:46;21.92;;;7.38;;
2912;SDS011;1466;48.778;9.166;2024-03-23T11:30:13;23.83;;;8.48;;
2912;SDS011;1466;48.778;9.166;2024-03-23T11:32:39;20.98;;;7.70;;
2912;SDS011;1466;48.778;9.166;2024-03-23T11:35:05;23.30;;;7.57;;
2912;SDS011;1466;48.778;9.166;2024-03-23T11:37:31;19.65;;;7.47;;
2912;SDS011;1466;48.778;9.166;2024-03-23T11:39:57;21.30;;;8.07;;
2912;SDS011;1466;48.778;9.166;2024-03-23T11:42:22;20.40;;;7.67;;
2912;SDS011;1466;48.778;9.166;2024-03-23T11:44:48;27.50;;;8.43;;
2912;SDS011;1466;48.778;9.166;2024-03-23T11:47:13;24.73;;;7.90;;
2912;SDS011;1466;48.778;9.166;2024-03-23T11:49:39;50.27;;;11.70;;
2912;SDS011;1466;48.778;9.166;2024-03-23T11:52:07;17.65;;;6.03;;
2912;SDS011;1466;48.778;9.166;2024-03-23T11:54:41;21.48;;;7.80;;
2912;SDS011;1466;48.778;9.166;2024-03-23T11:57:09;22.85;;;7.30;;
2912;SDS011;1466;48.778;9.166;2024-03-23T12:02:00;19.07;;;6.83;;
2912;SDS011;1466;48.778;9.166;2024-03-23T12:04:40;20.55;;;6.60;;
2912;SDS011;1466;48.778;9.166;2024-03-23T12:07:13;24.83;;;7.78;;
2912;SDS011;1466;48.778;9.166;2024-03-23T12:09:40;16.05;;;6.47;;
2912;SDS011;1466;48.778;9.166;2024-03-23T12:12:16;22.15;;;6.97;;
2912;SDS011;1466;48.778;9.166;2024-03-23T12:14:43;27.88;;;7.65;;
2912;SDS011;1466;48.778;9.166;2024-03-23T12:17:10;16.80;;;6.40;;
2912;SDS011;1466;48.778;9.166;2024-03-23T12:19:36;20.23;;;7.25;;
2912;SDS011;1466;48.778;9.166;2024-03-23T12:22:05;21.83;;;6.70;;
2912;SDS011;1466;48.778;9.166;2024-03-23T12:24:32;27.95;;;7.93;;
2912;SDS011;1466;48.778;9.166;2024-03-23T12:27:01;17.60;;;6.65;;
2912;SDS011;1466;48.778;9.166;2024-03-23T12:29:28;23.05;;;6.93;;
2912;SDS011;1466;48.778;9.166;2024-03-23T12:31:54;24.75;;;7.43;;
2912;SDS011;1466;48.778;9.166;2024-03-23T12:34:20;35.55;;;9.48;;
2912;SDS011;1466;48.778;9.166;2024-03-23T12:36:46;20.83;;;7.13;;
2912;SDS011;1466;48.778;9.166;2024-03-23T12:39:12;22.70;;;7.17;;
2912;SDS011;1466;48.778;9.166;2024-03-23T12:41:37;24.03;;;7.83;;
2912;SDS011;1466;48.778;9.166;2024-03-23T12:44:03;29.60;;;7.70;;
2912;SDS011;1466;48.778;9.166;2024-03-23T12:46:28;24.47;;;7.40;;
2912;SDS011;1466;48.778;9.166;2024-03-23T12:48:54;24.50;;;7.83;;
2912;SDS011;1466;48.778;9.166;2024-03-23T12:51:19;21.07;;;6.63;;
2912;SDS011;1466;48.778;9.166;2024-03-23T12:53:46;25.40;;;7.90;;
2912;SDS011;1466;48.778;9.166;2024-03-23T12:56:11;26.30;;;7.30;;
2912;SDS011;1466;48.778;9.166;2024-03-23T12:58:37;38.20;;;9.60;;
2912;SDS011;1466;48.778;9.166;2024-03-23T13:01:03;29.90;;;8.30;;
2912;SDS011;1466;48.778;9.166;2024-03-23T13:03:28;22.30;;;6.73;;
2912;SDS011;1466;48.778;9.166;2024-03-23T13:05:54;27.50;;;8.10;;
2912;SDS011;1466;48.778;9.166;2024-03-23T13:08:19;33.83;;;8.13;;
2912;SDS011;1466;48.778;9.166;2024-03-23T13:10:45;27.50;;;8.33;;
2912;SDS011;1466;48.778;9.166;2024-03-23T13:13:12;23.70;;;7.50;;
2912;SDS011;1466;48.778;9.166;2024-03-23T13:15:37;13.17;;;6.13;;
2912;SDS011;1466;48.778;9.166;2024-03-23T13:18:03;25.53;;;7.50;;
2912;SDS011;1466;48.778;9.166;2024-03-23T13:20:28;28.90;;;7.63;;
2912;SDS011;1466;48.778;9.166;2024-03-23T13:22:54;19.77;;;7.50;;
2912;SDS011;1466;48.778;9.166;2024-03-23T13:25:20;25.80;;;7.40;;
2912;SDS011;1466;48.778;9.166;2024-03-23T13:27:45;18.40;;;7.63;;
2912;SDS011;1466;48.778;9.166;2024-03-23T13:30:11;20.03;;;6.80;;
2912;SDS011;1466;48.778;9.166;2024-03-23T13:32:37;21.95;;;7.20;;
2912;SDS011;1466;48.778;9.166;2024-03-23T13:35:03;17.70;;;7.13;;
2912;SDS011;1466;48.778;9.166;2024-03-23T13:37:28;21.97;;;6.70;;
2912;SDS011;1466;48.778;9.166;2024-03-23T13:39:54;31.23;;;6.70;;
2912;SDS011;1466;48.778;9.166;2024-03-23T13:42:19;19.27;;;6.80;;
2912;SDS011;1466;48.778;9.166;2024-03-23T13:44:45;23.30;;;6.00;;
2912;SDS011;1466;48.778;9.166;2024-03-23T13:47:11;18.33;;;7.17;;
2912;SDS011;1466;48.778;9.166;2024-03-23T13:49:36;18.67;;;7.03;;
2912;SDS011;1466;48.778;9.166;2024-03-23T13:52:02;17.70;;;6.43;;
2912;SDS011;1466;48.778;9.166;2024-03-23T13:54:28;20.03;;;6.53;;
2912;SDS011;1466;48.778;9.166;2024-03-23T13:56:54;25.07;;;7.73;;
2912;SDS011;1466;48.778;9.166;2024-03-23T13:59:20;25.77;;;7.85;;
2912;SDS011;1466;48.778;9.166;2024-03-23T14:01:48;26.98;;;8.15;;
2912;SDS011;1466;48.778;9.166;2024-03-23T14:04:14;16.20;;;6.20;;
2912;SDS011;1466;48.778;9.166;2024-03-23T14:06:41;34.70;;;9.38;;
2912;SDS011;1466;48.778;9.166;2024-03-23T14:09:10;26.90;;;7.72;;
2912;SDS011;1466;48.778;9.166;2024-03-23T14:11:36;19.33;;;7.43;;
2912;SDS011;1466;48.778;9.166;2024-03-23T14:14:02;27.10;;;9.20;;
2912;SDS011;1466;48.778;9.166;2024-03-23T14:16:28;47.63;;;7.43;;
2912;SDS011;1466;48.778;9.166;2024-03-23T14:18:56;20.95;;;8.18;;
2912;SDS011;1466;48.778;9.166;2024-03-23T14:21:21;17.07;;;8.07;;
2912;SDS011;1466;48.778;9.166;2024-03-23T14:23:47;23.03;;;8.57;;
2912;SDS011;1466;48.778;9.166;2024-03-23T14:26:12;27.57;;;8.57;;
2912;SDS011;1466;48.778;9.166;2024-03-23T14:28:38;22.80;;;7.90;;
2912;SDS011;1466;48.778;9.166;2024-03-23T14:31:04;14.90;;;6.07;;
2912;SDS011;1466;48.778;9.166;2024-03-23T14:33:35;15.70;;;6.07;;
2912;SDS011;1466;48.778;9.166;2024-03-23T14:36:10;20.58;;;6.45;;
2912;SDS011;1466;48.778;9.166;2024-03-23T14:38:36;28.37;;;8.07;;
2912;SDS011;1466;48.778;9.166;2024-03-23T14:41:02;13.80;;;5.40;;
2912;SDS011;1466;48.778;9.166;2024-03-23T14:43:28;21.08;;;6.50;;
2912;SDS011;1466;48.778;9.166;2024-03-23T14:46:13;20.23;;;6.43;;
2912;SDS011;1466;48.778;9.166;2024-03-23T14:48:41;20.20;;;6.85;;
2912;SDS011;1466;48.778;9.166;2024-03-23T14:51:08;32.00;;;8.68;;
2912;SDS011;1466;48.778;9.166;2024-03-23T14:53:38;26.75;;;7.40;;
2912;SDS011;1466;48.778;9.166;2024-03-23T14:56:07;27.23;;;7.47;;
2912;SDS011;1466;48.778;9.166;2024-03-23T14:58:36;18.88;;;7.20;;
2912;SDS011;1466;48.778;9.166;2024-03-23T15:01:02;31.63;;;8.70;;
2912;SDS011;1466;48.778;9.166;2024-03-23T15:03:29;17.73;;;6.80;;
2912;SDS011;1466;48.778;9.166;2024-03-23T15:05:55;22.30;;;6.80;;
2912;SDS011;1466;48.778;9.166;2024-03-23T15:08:22;17.40;;;6.53;;
2912;SDS011;1466;48.778;9.166;2024-03-23T15:10:48;13.80;;;5.80;;
2912;SDS011;1466;48.778;9.166;2024-03-23T15:13:14;27.60;;;8.13;;
2912;SDS011;1466;48.778;9.166;2024-03-23T15:15:42;15.17;;;6.10;;
2912;SDS011;1466;48.778;9.166;2024-03-23T15:18:10;21.10;;;7.00;;
2912;SDS011;1466;48.778;9.166;2024-03-23T15:20:37;12.77;;;5.80;;
2912;SDS011;1466;48.778;9.166;2024-03-23T15:23:03;25.95;;;7.10;;
2912;SDS011;1466;48.778;9.166;2024-03-23T15:25:29;33.30;;;8.43;;
2912;SDS011;1466;48.778;9.166;2024-03-23T15:27:56;17.23;;;6.07;;
2912;SDS011;1466;48.778;9.166;2024-03-23T15:30:22;22.15;;;6.70;;
2912;SDS011;1466;48.778;9.166;2024-03-23T15:32:48;17.57;;;6.07;;
2912;SDS011;1466;48.778;9.166;2024-03-23T15:35:14;21.03;;;6.97;;
2912;SDS011;1466;48.778;9.166;2024-03-23T15:37:39;14.60;;;5.83;;
2912;SDS011;1466;48.778;9.166;2024-03-23T15:40:06;22.80;;;6.87;;
2912;SDS011;1466;48.778;9.166;2024-03-23T15:42:32;18.85;;;6.60;;
2912;SDS011;1466;48.778;9.166;2024-03-23T15:44:57;24.30;;;7.43;;
2912;SDS011;1466;48.778;9.166;2024-03-23T15:47:24;19.45;;;6.65;;
2912;SDS011;1466;48.778;9.166;2024-03-23T15:49:50;21.37;;;7.20;;
2912;SDS011;1466;48.778;9.166;2024-03-23T15:52:18;22.15;;;7.00;;
2912;SDS011;1466;48.778;9.166;2024-03-23T15:54:44;14.67;;;6.13;;
2912;SDS011;1466;48.778;9.166;2024-03-23T15:57:09;22.83;;;7.03;;
2912;SDS011;1466;48.778;9.166;2024-03-23T15:59:35;26.83;;;7.57;;